createdAt,value
2018-09-29T00:01:23.366Z,2.93
2018-09-29T00:03:50.671Z,3.13
2018-09-29T00:06:17.952Z,2.80
2018-09-29T00:08:45.189Z,3.13
2018-09-29T00:11:12.479Z,2.93
2018-09-29T00:13:39.773Z,3.07
2018-09-29T00:16:07.331Z,2.60
2018-09-29T00:18:34.607Z,2.90
2018-09-29T00:21:01.980Z,3.30
2018-09-29T00:23:29.243Z,2.67
2018-09-29T00:25:56.519Z,3.00
2018-09-29T00:28:23.792Z,2.87
2018-09-29T00:30:51.071Z,2.67
2018-09-29T00:33:18.306Z,2.87
2018-09-29T00:35:45.631Z,2.50
2018-09-29T00:38:12.901Z,3.10
2018-09-29T00:40:40.227Z,2.73
2018-09-29T00:43:07.523Z,2.53
2018-09-29T00:45:34.771Z,2.50
2018-09-29T00:48:02.141Z,2.33
2018-09-29T00:50:29.372Z,2.57
2018-09-29T00:52:56.753Z,2.40
2018-09-29T00:55:24.057Z,2.40
2018-09-29T00:57:51.417Z,2.87
2018-09-29T01:00:18.660Z,3.00
2018-09-29T01:02:45.923Z,3.17
2018-09-29T01:05:13.228Z,2.63
2018-09-29T01:07:40.494Z,2.97
2018-09-29T01:10:07.796Z,2.70
2018-09-29T01:12:35.050Z,2.43
2018-09-29T01:15:02.370Z,2.57
2018-09-29T01:17:29.644Z,2.47
2018-09-29T01:19:56.922Z,2.60
2018-09-29T01:22:24.190Z,2.67
2018-09-29T01:24:51.492Z,2.93
2018-09-29T01:27:18.741Z,2.70
2018-09-29T01:29:46.029Z,3.27
2018-09-29T01:32:13.287Z,2.60
2018-09-29T01:34:40.562Z,2.30
2018-09-29T01:37:07.818Z,2.70
2018-09-29T01:39:35.121Z,2.30
2018-09-29T01:42:02.433Z,2.63
2018-09-29T01:44:29.661Z,2.47
2018-09-29T01:46:56.975Z,2.70
2018-09-29T01:49:24.237Z,2.30
2018-09-29T01:51:51.559Z,2.47
2018-09-29T01:54:18.995Z,2.90
2018-09-29T01:56:46.347Z,2.43
2018-09-29T01:59:13.617Z,2.70
2018-09-29T02:01:40.933Z,2.67
2018-09-29T02:04:08.163Z,3.00
2018-09-29T02:06:35.453Z,3.03
2018-09-29T02:09:03.259Z,2.63
2018-09-29T02:11:30.567Z,2.90
2018-09-29T02:13:58.479Z,2.60
2018-09-29T02:16:25.923Z,2.90
2018-09-29T02:18:53.208Z,3.07
2018-09-29T02:21:20.511Z,2.90
2018-09-29T02:23:47.785Z,2.97
2018-09-29T02:26:15.105Z,2.83
2018-09-29T02:28:42.312Z,2.73
2018-09-29T02:31:09.589Z,2.57
2018-09-29T02:33:36.875Z,3.20
2018-09-29T02:36:04.227Z,2.70
2018-09-29T02:38:31.575Z,2.53
2018-09-29T02:40:58.848Z,2.83
2018-09-29T02:43:26.136Z,2.87
2018-09-29T02:45:53.412Z,2.60
2018-09-29T02:48:20.699Z,3.10
2018-09-29T02:50:48.206Z,3.30
2018-09-29T02:53:15.498Z,2.90
2018-09-29T02:55:42.816Z,2.83
2018-09-29T02:58:10.094Z,2.63
2018-09-29T03:00:37.348Z,2.87
2018-09-29T03:03:04.627Z,2.60
2018-09-29T03:05:31.872Z,2.87
2018-09-29T03:07:59.140Z,2.57
2018-09-29T03:10:26.384Z,2.67
2018-09-29T03:15:27.611Z,2.73
2018-09-29T03:17:54.967Z,2.80
2018-09-29T03:20:22.249Z,2.70
2018-09-29T03:22:49.519Z,2.57
2018-09-29T03:25:16.761Z,3.10
2018-09-29T03:27:44.053Z,2.40
2018-09-29T03:30:11.385Z,2.40
2018-09-29T03:32:38.608Z,2.60
2018-09-29T03:35:05.909Z,2.87
2018-09-29T03:37:33.197Z,2.40
2018-09-29T03:40:00.537Z,2.30
2018-09-29T03:42:27.797Z,2.40
2018-09-29T03:44:55.148Z,2.80
2018-09-29T03:47:22.472Z,2.50
2018-09-29T03:49:49.773Z,2.33
2018-09-29T03:52:17.076Z,2.77
2018-09-29T03:54:44.366Z,2.40
2018-09-29T03:57:11.642Z,2.20
2018-09-29T03:59:38.909Z,2.37
2018-09-29T04:02:06.160Z,2.40
2018-09-29T04:04:33.451Z,2.30
2018-09-29T04:07:00.730Z,2.50
2018-09-29T04:09:28.039Z,2.90
2018-09-29T04:11:55.332Z,2.27
2018-09-29T04:14:22.638Z,2.40
2018-09-29T04:16:49.931Z,2.50
2018-09-29T04:19:17.270Z,2.40
2018-09-29T04:21:46.722Z,2.63
2018-09-29T04:24:14.568Z,2.60
2018-09-29T04:26:41.919Z,2.73
2018-09-29T04:29:09.184Z,2.23
2018-09-29T04:31:36.468Z,1.90
2018-09-29T04:34:03.808Z,2.30
2018-09-29T04:36:31.076Z,2.10
2018-09-29T04:38:58.373Z,2.23
2018-09-29T04:41:25.592Z,2.20
2018-09-29T04:43:52.894Z,2.50
2018-09-29T04:46:20.177Z,2.40
2018-09-29T04:48:47.752Z,2.40
2018-09-29T04:51:15.023Z,2.20
2018-09-29T04:53:42.614Z,2.50
2018-09-29T04:56:10.532Z,2.50
2018-09-29T04:58:37.782Z,2.40
2018-09-29T05:01:05.095Z,2.27
2018-09-29T05:03:32.363Z,2.10
2018-09-29T05:05:59.738Z,2.40
2018-09-29T05:08:27.132Z,2.10
2018-09-29T05:10:54.373Z,2.60
2018-09-29T05:13:21.771Z,2.47
2018-09-29T05:15:58.427Z,2.67
2018-09-29T05:18:25.868Z,2.70
2018-09-29T05:20:53.327Z,2.13
2018-09-29T05:23:21.311Z,2.50
2018-09-29T05:25:48.931Z,2.63
2018-09-29T05:28:16.196Z,3.07
2018-09-29T05:30:44.501Z,2.50
2018-09-29T05:33:11.705Z,3.00
2018-09-29T05:35:38.981Z,3.43
2018-09-29T05:38:06.465Z,3.10
2018-09-29T05:40:33.716Z,4.00
2018-09-29T05:43:01.178Z,3.13
2018-09-29T05:45:28.594Z,3.27
2018-09-29T05:47:56.008Z,3.13
2018-09-29T05:50:23.246Z,3.50
2018-09-29T05:52:50.589Z,3.70
2018-09-29T05:55:18.177Z,3.87
2018-09-29T05:57:45.547Z,4.00
2018-09-29T06:00:13.030Z,4.27
2018-09-29T06:02:40.252Z,4.00
2018-09-29T06:05:07.583Z,3.43
2018-09-29T06:07:35.192Z,3.30
2018-09-29T06:10:02.641Z,3.27
2018-09-29T06:12:30.117Z,3.30
2018-09-29T06:14:57.396Z,3.10
2018-09-29T06:17:24.663Z,3.00
2018-09-29T06:19:52.243Z,2.70
2018-09-29T06:22:19.530Z,2.77
2018-09-29T06:24:47.559Z,3.10
2018-09-29T06:27:14.863Z,3.57
2018-09-29T06:29:42.107Z,4.03
2018-09-29T06:32:09.403Z,3.53
2018-09-29T06:34:36.748Z,4.10
2018-09-29T06:37:04.070Z,4.67
2018-09-29T06:39:31.444Z,4.23
2018-09-29T06:41:58.906Z,4.43
2018-09-29T06:44:26.162Z,4.70
2018-09-29T06:46:53.442Z,4.33
2018-09-29T06:49:20.839Z,4.10
2018-09-29T06:51:48.114Z,4.13
2018-09-29T06:54:15.455Z,3.67
2018-09-29T06:56:43.022Z,4.50
2018-09-29T06:59:10.794Z,4.10
2018-09-29T07:01:38.102Z,4.63
2018-09-29T07:04:05.449Z,4.97
2018-09-29T07:06:32.899Z,4.80
2018-09-29T07:09:00.181Z,4.23
2018-09-29T07:11:27.462Z,4.63
2018-09-29T07:13:54.848Z,4.43
2018-09-29T07:16:22.174Z,4.40
2018-09-29T07:18:49.499Z,5.03
2018-09-29T07:21:16.893Z,4.30
2018-09-29T07:23:44.193Z,4.93
2018-09-29T07:26:11.496Z,4.37
2018-09-29T07:28:38.747Z,4.63
2018-09-29T07:31:06.558Z,4.47
2018-09-29T07:33:33.806Z,4.33
2018-09-29T07:36:01.863Z,4.63
2018-09-29T07:38:29.117Z,5.17
2018-09-29T07:40:56.547Z,4.87
2018-09-29T07:43:23.961Z,4.80
2018-09-29T07:45:55.206Z,4.57
2018-09-29T07:48:22.485Z,4.47
2018-09-29T07:50:49.811Z,4.60
2018-09-29T07:53:17.220Z,4.47
2018-09-29T07:55:44.615Z,4.73
2018-09-29T07:58:11.907Z,4.30
2018-09-29T08:00:39.442Z,4.77
2018-09-29T08:03:06.872Z,5.37
2018-09-29T08:05:34.324Z,5.40
2018-09-29T08:08:01.699Z,5.47
2018-09-29T08:10:28.987Z,5.10
2018-09-29T08:12:56.327Z,4.87
2018-09-29T08:15:23.619Z,4.83
2018-09-29T08:17:50.955Z,4.37
2018-09-29T08:20:18.223Z,4.70
2018-09-29T08:22:45.599Z,4.30
2018-09-29T08:25:12.922Z,4.10
2018-09-29T08:27:40.356Z,3.70
2018-09-29T08:30:07.659Z,3.60
2018-09-29T08:32:35.060Z,4.03
2018-09-29T08:35:02.456Z,4.30
2018-09-29T08:37:29.743Z,3.83
2018-09-29T08:39:57.054Z,4.00
2018-09-29T08:42:24.422Z,3.47
2018-09-29T08:44:51.710Z,3.40
2018-09-29T08:47:19.042Z,4.10
2018-09-29T08:49:47.034Z,4.10
2018-09-29T08:52:14.495Z,3.37
2018-09-29T08:54:41.947Z,3.33
2018-09-29T08:57:09.322Z,3.23
2018-09-29T08:59:36.603Z,3.30
2018-09-29T09:02:03.947Z,3.20
2018-09-29T09:04:31.217Z,3.47
2018-09-29T09:06:58.670Z,2.83
2018-09-29T09:09:26.004Z,3.10
2018-09-29T09:11:53.621Z,3.20
2018-09-29T09:14:20.920Z,3.20
2018-09-29T09:16:48.423Z,2.80
2018-09-29T09:19:15.774Z,2.90
2018-09-29T09:21:43.413Z,2.67
2018-09-29T09:24:10.690Z,2.60
2018-09-29T09:26:38.080Z,2.33
2018-09-29T09:29:05.420Z,2.50
2018-09-29T09:31:32.681Z,2.63
2018-09-29T09:34:00.038Z,2.80
2018-09-29T09:36:27.409Z,2.43
2018-09-29T09:38:54.735Z,1.90
2018-09-29T09:41:22.037Z,2.37
2018-09-29T09:43:49.300Z,2.50
2018-09-29T09:46:16.711Z,2.27
2018-09-29T09:48:44.014Z,2.57
2018-09-29T09:51:11.521Z,2.37
2018-09-29T09:53:39.333Z,2.43
2018-09-29T09:56:07.262Z,2.30
2018-09-29T09:58:35.263Z,2.90
2018-09-29T10:01:08.230Z,2.37
2018-09-29T10:03:35.543Z,2.47
2018-09-29T10:06:02.817Z,2.23
2018-09-29T10:08:30.242Z,2.80
2018-09-29T10:10:57.526Z,2.33
2018-09-29T10:13:24.959Z,2.60
2018-09-29T10:15:52.382Z,2.70
2018-09-29T10:18:19.968Z,2.60
2018-09-29T10:20:47.944Z,2.40
2018-09-29T10:23:15.582Z,2.40
2018-09-29T10:25:43.769Z,2.20
2018-09-29T10:28:11.188Z,2.50
2018-09-29T10:30:39.058Z,2.03
2018-09-29T10:33:06.764Z,2.20
2018-09-29T10:35:34.026Z,2.13
2018-09-29T10:38:02.069Z,3.17
2018-09-29T10:40:29.359Z,2.10
2018-09-29T10:42:57.442Z,1.83
2018-09-29T10:45:25.426Z,2.07
2018-09-29T10:47:52.894Z,1.60
2018-09-29T10:50:20.180Z,1.87
2018-09-29T10:52:47.610Z,2.20
2018-09-29T10:55:14.953Z,2.00
2018-09-29T10:57:42.238Z,2.17
2018-09-29T11:00:09.579Z,1.80
2018-09-29T11:02:37.587Z,2.30
2018-09-29T11:05:05.045Z,2.23
2018-09-29T11:07:32.579Z,1.83
2018-09-29T11:09:59.972Z,1.97
2018-09-29T11:12:27.255Z,1.83
2018-09-29T11:14:54.547Z,2.07
2018-09-29T11:17:21.908Z,2.10
2018-09-29T11:19:49.591Z,2.23
2018-09-29T11:22:18.507Z,2.00
2018-09-29T11:24:45.899Z,1.63
2018-09-29T11:27:13.468Z,2.00
2018-09-29T11:29:40.788Z,2.10
2018-09-29T11:32:08.039Z,1.63
2018-09-29T11:34:35.327Z,1.93
2018-09-29T11:37:02.600Z,2.27
2018-09-29T11:39:29.880Z,1.90
2018-09-29T11:41:57.300Z,1.90
2018-09-29T11:44:24.561Z,1.67
2018-09-29T11:46:51.870Z,1.80
2018-09-29T11:49:19.166Z,1.70
2018-09-29T11:51:46.523Z,1.77
2018-09-29T11:54:13.909Z,1.83
2018-09-29T11:56:48.786Z,1.70
2018-09-29T11:59:16.347Z,1.67
2018-09-29T12:01:43.725Z,1.83
2018-09-29T12:04:10.988Z,1.70
2018-09-29T12:06:38.342Z,2.23
2018-09-29T12:09:08.576Z,1.87
2018-09-29T12:11:36.080Z,1.33
2018-09-29T12:14:03.343Z,1.80
2018-09-29T12:16:30.665Z,1.80
2018-09-29T12:18:57.930Z,1.47
2018-09-29T12:21:25.239Z,1.67
2018-09-29T12:23:52.681Z,1.72
2018-09-29T12:26:20.114Z,2.00
2018-09-29T12:28:47.400Z,1.97
2018-09-29T12:31:14.707Z,1.70
2018-09-29T12:33:42.079Z,1.70
2018-09-29T12:36:09.350Z,2.10
2018-09-29T12:38:36.681Z,1.90
2018-09-29T12:41:04.100Z,1.87
2018-09-29T12:43:31.464Z,1.50
2018-09-29T12:45:58.723Z,1.80
2018-09-29T12:48:26.055Z,1.90
2018-09-29T12:50:53.295Z,2.07
2018-09-29T12:53:20.692Z,2.13
2018-09-29T12:55:47.991Z,1.57
2018-09-29T12:58:15.372Z,2.00
2018-09-29T13:00:42.665Z,1.90
2018-09-29T13:03:10.033Z,1.73
2018-09-29T13:05:37.329Z,2.00
2018-09-29T13:08:04.609Z,1.80
2018-09-29T13:10:31.880Z,1.70
2018-09-29T13:12:59.213Z,1.70
2018-09-29T13:15:26.599Z,1.70
2018-09-29T13:17:53.873Z,1.60
2018-09-29T13:20:21.214Z,1.83
2018-09-29T13:22:48.502Z,1.67
2018-09-29T13:25:16.689Z,1.90
2018-09-29T13:27:43.967Z,1.90
2018-09-29T13:30:11.266Z,1.80
2018-09-29T13:32:38.528Z,1.93
2018-09-29T13:35:05.936Z,1.90
2018-09-29T13:37:33.182Z,1.90
2018-09-29T13:40:00.531Z,2.27
2018-09-29T13:42:27.826Z,2.00
2018-09-29T13:44:55.433Z,1.80
2018-09-29T13:47:22.815Z,1.67
2018-09-29T13:49:50.112Z,1.70
2018-09-29T13:52:17.525Z,1.63
2018-09-29T13:54:44.970Z,1.60
2018-09-29T13:57:12.330Z,1.50
2018-09-29T13:59:39.620Z,1.22
2018-09-29T14:02:07.034Z,1.50
2018-09-29T14:04:34.289Z,1.72
2018-09-29T14:07:01.573Z,1.07
2018-09-29T14:09:28.862Z,1.32
2018-09-29T14:11:56.165Z,1.52
2018-09-29T14:14:23.471Z,1.75
2018-09-29T14:16:50.747Z,1.92
2018-09-29T14:19:17.984Z,1.82
2018-09-29T14:21:45.325Z,1.47
2018-09-29T14:24:12.603Z,1.57
2018-09-29T14:26:39.902Z,1.52
2018-09-29T14:29:07.226Z,1.40
2018-09-29T14:31:34.543Z,1.40
2018-09-29T14:34:01.858Z,1.30
2018-09-29T14:36:29.249Z,1.40
2018-09-29T14:38:56.521Z,1.47
2018-09-29T14:41:23.850Z,1.60
2018-09-29T14:43:51.254Z,1.35
2018-09-29T14:46:18.582Z,1.50
2018-09-29T14:48:45.837Z,1.42
2018-09-29T14:51:13.154Z,1.22
2018-09-29T14:53:40.486Z,1.22
2018-09-29T14:56:07.742Z,2.30
2018-09-29T14:58:35.103Z,1.50
2018-09-29T15:01:02.455Z,1.32
2018-09-29T15:03:29.713Z,1.35
2018-09-29T15:05:56.984Z,1.62
2018-09-29T15:08:24.287Z,1.32
2018-09-29T15:10:51.726Z,1.60
2018-09-29T15:13:19.041Z,1.67
2018-09-29T15:15:46.351Z,1.50
2018-09-29T15:18:13.671Z,1.50
2018-09-29T15:20:41.008Z,1.53
2018-09-29T15:23:08.333Z,1.60
2018-09-29T15:25:35.650Z,1.73
2018-09-29T15:28:03.019Z,1.70
2018-09-29T15:30:30.342Z,1.80
2018-09-29T15:32:57.627Z,1.80
2018-09-29T15:35:24.931Z,1.80
2018-09-29T15:37:52.311Z,1.70
2018-09-29T15:40:19.575Z,1.80
2018-09-29T15:42:47.020Z,1.93
2018-09-29T15:45:14.290Z,2.03
2018-09-29T15:47:41.575Z,2.17
2018-09-29T15:50:08.876Z,1.90
2018-09-29T15:52:36.152Z,1.80
2018-09-29T15:55:03.577Z,2.03
2018-09-29T15:57:30.951Z,1.80
2018-09-29T15:59:58.301Z,1.90
2018-09-29T16:02:25.989Z,2.00
2018-09-29T16:04:53.260Z,2.00
2018-09-29T16:07:20.617Z,2.13
2018-09-29T16:09:47.985Z,2.30
2018-09-29T16:12:15.239Z,2.40
2018-09-29T16:14:42.512Z,2.60
2018-09-29T16:17:09.791Z,2.43
2018-09-29T16:19:37.096Z,2.57
2018-09-29T16:22:04.524Z,2.20
2018-09-29T16:24:31.876Z,2.20
2018-09-29T16:26:59.135Z,2.27
2018-09-29T16:29:26.437Z,2.53
2018-09-29T16:31:53.863Z,2.10
2018-09-29T16:34:21.126Z,2.20
2018-09-29T16:36:48.366Z,2.33
2018-09-29T16:39:15.686Z,2.60
2018-09-29T16:41:43.178Z,2.43
2018-09-29T16:44:10.700Z,2.27
2018-09-29T16:46:38.024Z,2.30
2018-09-29T16:49:05.360Z,2.50
2018-09-29T16:51:32.842Z,2.20
2018-09-29T16:54:00.393Z,2.10
2018-09-29T16:56:28.441Z,2.47
2018-09-29T16:58:55.813Z,2.40
2018-09-29T17:01:23.161Z,2.73
2018-09-29T17:03:50.632Z,2.70
2018-09-29T17:06:17.896Z,2.83
2018-09-29T17:08:45.210Z,2.57
2018-09-29T17:11:12.714Z,2.70
2018-09-29T17:13:40.019Z,2.60
2018-09-29T17:16:07.542Z,2.57
2018-09-29T17:18:35.274Z,3.00
2018-09-29T17:21:02.970Z,2.80
2018-09-29T17:23:30.738Z,2.67
2018-09-29T17:25:58.122Z,2.40
2018-09-29T17:28:25.624Z,2.70
2018-09-29T17:30:52.928Z,2.30
2018-09-29T17:33:20.191Z,2.50
2018-09-29T17:35:47.496Z,2.70
2018-09-29T17:38:15.822Z,2.80
2018-09-29T17:40:43.189Z,2.70
2018-09-29T17:43:10.479Z,2.80
2018-09-29T17:45:38.688Z,2.70
2018-09-29T17:48:05.947Z,2.50
2018-09-29T17:50:33.380Z,2.70
2018-09-29T17:53:00.751Z,2.30
2018-09-29T17:55:28.267Z,2.93
2018-09-29T17:57:55.667Z,3.00
2018-09-29T18:00:23.768Z,2.60
2018-09-29T18:03:06.883Z,2.80
2018-09-29T18:05:34.598Z,2.90
2018-09-29T18:08:01.977Z,2.90
2018-09-29T18:10:29.403Z,3.87
2018-09-29T18:12:56.690Z,3.50
2018-09-29T18:15:24.061Z,3.23
2018-09-29T18:17:51.391Z,3.40
2018-09-29T18:20:18.718Z,3.20
2018-09-29T18:22:46.001Z,3.30
2018-09-29T18:25:13.421Z,3.43
2018-09-29T18:27:40.809Z,3.50
2018-09-29T18:30:09.473Z,3.57
2018-09-29T18:32:36.895Z,3.90
2018-09-29T18:35:04.715Z,4.30
2018-09-29T18:37:32.925Z,4.20
2018-09-29T18:40:00.201Z,4.23
2018-09-29T18:42:27.632Z,4.13
2018-09-29T18:44:55.030Z,4.23
2018-09-29T18:47:22.942Z,4.00
2018-09-29T18:49:50.307Z,4.20
2018-09-29T18:52:17.640Z,4.40
2018-09-29T18:54:45.067Z,4.00
2018-09-29T18:57:12.641Z,3.90
2018-09-29T18:59:39.930Z,3.77
2018-09-29T19:02:07.220Z,3.33
2018-09-29T19:04:34.522Z,4.00
2018-09-29T19:07:01.832Z,3.60
2018-09-29T19:09:29.943Z,3.57
2018-09-29T19:11:58.005Z,3.60
2018-09-29T19:14:25.250Z,3.30
2018-09-29T19:16:52.545Z,3.47
2018-09-29T19:19:19.853Z,3.40
2018-09-29T19:21:47.318Z,3.33
2018-09-29T19:24:14.738Z,3.30
2018-09-29T19:26:42.083Z,3.60
2018-09-29T19:29:09.436Z,3.40
2018-09-29T19:31:36.710Z,3.10
2018-09-29T19:34:04.083Z,3.27
2018-09-29T19:36:31.393Z,3.30
2018-09-29T19:38:58.674Z,3.27
2018-09-29T19:41:26.627Z,3.70
2018-09-29T19:43:55.042Z,3.97
2018-09-29T19:46:22.337Z,3.40
2018-09-29T19:48:49.858Z,3.67
2018-09-29T19:51:17.234Z,3.90
2018-09-29T19:53:44.590Z,4.60
2018-09-29T19:56:12.190Z,4.00
2018-09-29T19:58:39.578Z,3.77
2018-09-29T20:01:07.281Z,3.87
2018-09-29T20:03:35.207Z,5.10
2018-09-29T20:06:02.517Z,8.73
2018-09-29T20:08:29.807Z,9.50
2018-09-29T20:10:57.104Z,9.90
2018-09-29T20:13:24.526Z,7.70
2018-09-29T20:15:52.430Z,7.73
2018-09-29T20:18:19.723Z,6.37
2018-09-29T20:20:47.087Z,6.20
2018-09-29T20:23:14.449Z,5.80
2018-09-29T20:25:41.749Z,5.63
2018-09-29T20:28:09.072Z,5.60
2018-09-29T20:30:36.410Z,5.53
2018-09-29T20:33:03.795Z,6.30
2018-09-29T20:35:31.202Z,5.17
2018-09-29T20:37:58.648Z,4.87
2018-09-29T20:40:25.976Z,5.00
2018-09-29T20:42:53.282Z,4.63
2018-09-29T20:45:20.550Z,4.50
2018-09-29T20:47:47.919Z,4.37
2018-09-29T20:50:15.159Z,4.37
2018-09-29T20:52:42.537Z,4.13
2018-09-29T20:55:09.928Z,4.13
2018-09-29T20:57:37.707Z,4.40
2018-09-29T21:00:15.051Z,4.80
2018-09-29T21:02:42.552Z,4.33
2018-09-29T21:05:09.819Z,4.20
2018-09-29T21:07:37.202Z,4.43
2018-09-29T21:10:04.717Z,4.50
2018-09-29T21:12:32.151Z,4.50
2018-09-29T21:14:59.427Z,5.07
2018-09-29T21:17:27.020Z,4.83
2018-09-29T21:19:54.537Z,4.47
2018-09-29T21:22:22.029Z,4.40
2018-09-29T21:24:49.501Z,3.77
2018-09-29T21:27:16.827Z,4.30
2018-09-29T21:29:44.227Z,4.03
2018-09-29T21:32:11.623Z,4.17
2018-09-29T21:34:38.948Z,4.50
2018-09-29T21:37:06.423Z,4.73
2018-09-29T21:39:34.295Z,4.43
2018-09-29T21:42:01.568Z,4.30
2018-09-29T21:44:28.897Z,4.53
2018-09-29T21:46:56.188Z,4.40
2018-09-29T21:49:23.580Z,4.80
2018-09-29T21:51:51.621Z,4.33
2018-09-29T21:54:18.903Z,4.73
2018-09-29T21:56:46.317Z,4.67
2018-09-29T21:59:13.673Z,4.20
2018-09-29T22:01:40.994Z,4.27
2018-09-29T22:04:08.278Z,4.50
2018-09-29T22:06:35.667Z,4.63
2018-09-29T22:09:03.486Z,4.00
2018-09-29T22:11:30.774Z,4.00
2018-09-29T22:13:58.171Z,4.10
2018-09-29T22:16:25.582Z,4.13
2018-09-29T22:18:52.995Z,4.30
2018-09-29T22:21:20.312Z,4.10
2018-09-29T22:23:47.610Z,3.87
2018-09-29T22:26:15.645Z,4.10
2018-09-29T22:28:43.090Z,4.20
2018-09-29T22:31:10.467Z,4.33
2018-09-29T22:33:37.766Z,4.17
2018-09-29T22:36:05.998Z,3.40
2018-09-29T22:38:33.300Z,3.60
2018-09-29T22:41:00.619Z,4.10
2018-09-29T22:43:28.122Z,3.67
2018-09-29T22:45:55.843Z,3.70
2018-09-29T22:48:23.067Z,3.70
2018-09-29T22:50:50.330Z,3.87
2018-09-29T22:53:17.698Z,4.40
2018-09-29T22:55:44.970Z,3.97
2018-09-29T22:58:12.283Z,3.93
2018-09-29T23:00:39.582Z,4.00
2018-09-29T23:03:07.011Z,3.47
2018-09-29T23:05:34.381Z,3.73
2018-09-29T23:08:01.665Z,3.50
2018-09-29T23:10:28.923Z,3.53
2018-09-29T23:12:56.400Z,3.87
2018-09-29T23:15:24.166Z,3.50
2018-09-29T23:17:51.473Z,4.17
2018-09-29T23:20:18.808Z,3.60
2018-09-29T23:22:46.176Z,3.40
2018-09-29T23:25:13.521Z,3.60
2018-09-29T23:27:40.912Z,3.57
2018-09-29T23:30:08.322Z,3.17
2018-09-29T23:32:35.791Z,3.80
2018-09-29T23:35:03.112Z,3.60
2018-09-29T23:37:30.498Z,3.73
2018-09-29T23:39:57.776Z,3.50
2018-09-29T23:42:25.614Z,3.50
2018-09-29T23:44:53.012Z,3.40
2018-09-29T23:47:20.396Z,3.40
2018-09-29T23:49:47.717Z,3.67
2018-09-29T23:52:15.007Z,3.47
2018-09-29T23:54:42.380Z,3.50
2018-09-29T23:57:09.833Z,3.27
2018-09-29T23:59:37.141Z,3.33
